Greenville, OH

12:26 AM EST on January 28, 2015 (GMT -0500)
North side of Greenville, OH | Change Station
CLOSE
Current Station
Personal Weather Station
Location: Greenville, OH
Elevation: 1025 ft
Nearby Weather Stations

Elev 1025 ft 40.09 °N, 84.63 °W | Updated 14 minutes ago

Clear
Clear
9.3 °F
Feels Like 9 °F
N
0.0
Wind Variable Wind from West
Gusts 1.0 mph

Today
High -- | Low -- °F
--% Chance of Precip.
Yesterday
High -- | Low -- °F
Precip. -- in
7:50 AM 5:52 PM
First Quarter, 61% visible
Pressure 30.28 in
Visibility 5.0 miles
Clouds Clear
Windchill 9 °F
Dew Point 7 °F
Humidity 90%
Rainfall 0.00 in
Snow Depth Not available.
UV 0 out of 12
Pollen .10 out of 12
Air Quality Not available.
Flu Activity Not available.
METAR KDAY 280456Z 26004KT 5SM BR CLR M11/M13 A3023 RMK AO2 SLP253 I1000 T11111128 410441122

More Conditions Fewer Conditions

Pressure 30.28 in
Visibility 5.0 miles
Clouds Clear
Windchill 9 °F
Dew Point 7 °F
Humidity 90%
Rainfall 0.00 in
Snow Depth Not available.
UV 0 out of 12
Pollen .10 out of 12
Air Quality Not available.
Flu Activity Not available.
METAR KDAY 280456Z 26004KT 5SM BR CLR M11/M13 A3023 RMK AO2 SLP253 I1000 T11111128 410441122

More Conditions Fewer Conditions

10-Day Weather Forecast

Almanac

Astronomy

Jan. 28, 2015 Rise Set
Actual Time
Civil Twilight
Nautical Twilight
Astronomical Twilight
Moon
Length of Visible Light
Length of Day
Tomorrow will be .
, % of the Moon is Illuminated

Today's Extremes

State Highs State Lows

Community

WunderPhotos

Upload Photos

1,791,103 photos uploaded!

WunderBlogs® & News

Nearby

Air Quality

  Air Quality AQ Index Pollutant
Not available.

Snow Depth

Station Depth Elevation

Earthquake Activity

City Distance Mag. Time & Date
Minimum magnitude displayed is 2.5.

Coastal Water Temperatures

Place Temperature

Nearby Weather Stations